Grand Lake, Colorado
Current Conditions -  °F | °C
As of 1:14 PM on Thursday 29 Jan 2015 (Local Time) from K0CO Reporting Station
Clear Clear  
Wind Chill: -14°   Ceiling: Unl
Heat Index: -7°   Visibility: 10mi
Dew Point: -11°   Wind: 14mph
Humidity: 74%   Direction: 120°ESE
Pressure: 30.44"   Gusts: NA
Location:  40.25°N, 105.82°W
Report Text: K0CO 292014Z AUTO 12012KT 10SM CLR M07/M11 A3044 RMK AO2
Loading
Personal Weather Stations






























Interactive Weather Map New forecast layout! Learn more

10-Day Weather Forecast

Advertisements
Track Severe Weather on mobile